Time;durP1;ratioP1;P1;durP2;ratioP2;P2;SDS_P1;SDS_P2;PMS_P1;PMS_P2;Temp;Humidity;BMP_temperature;BMP_pressure;BME280_temperature;BME280_humidity;BME280_pressure;Samples;Min_cycle;Max_cycle;Signal;HPM_P1;HPM_P2
2022/09/24 00:01:21;;;;;;;14.73;4.73;;;10.90;99.90;;;;;;5050633;28;20424;-76
2022/09/24 00:03:59;;;;;;;9.03;4.80;;;10.90;99.90;;;;;;5051867;28;20430;-76
2022/09/24 00:06:25;;;;;;;8.43;4.90;;;10.90;99.90;;;;;;5051626;28;20454;-76
2022/09/24 00:08:56;;;;;;;4.67;4.17;;;11.00;99.90;;;;;;5052183;28;20500;-76
2022/09/24 00:11:25;;;;;;;4.90;4.40;;;11.00;99.90;;;;;;5052259;28;20451;-76
2022/09/24 00:13:52;;;;;;;4.60;4.20;;;11.10;99.90;;;;;;5052254;28;20442;-75
2022/09/24 00:16:20;;;;;;;6.37;3.93;;;11.10;99.90;;;;;;5052069;28;20508;-75
2022/09/24 00:18:45;;;;;;;6.97;5.03;;;11.00;99.90;;;;;;5052036;28;20432;-76
2022/09/24 00:21:36;;;;;;;6.37;4.80;;;10.90;99.90;;;;;;5051998;28;20820;-76
2022/09/24 00:27:06;;;;;;;7.00;4.30;;;10.80;99.90;;;;;;5052132;28;20770;-76
2022/09/24 00:29:34;;;;;;;6.70;4.27;;;10.80;99.90;;;;;;5052013;28;20423;-75
2022/09/24 00:32:00;;;;;;;12.40;4.67;;;10.90;99.90;;;;;;5051801;28;20244;-76
2022/09/24 00:34:26;;;;;;;7.53;4.00;;;11.00;99.90;;;;;;5051834;28;20495;-76
2022/09/24 00:36:52;;;;;;;11.70;4.57;;;11.00;99.90;;;;;;5051793;28;20421;-76
2022/09/24 00:39:18;;;;;;;10.43;4.40;;;11.10;99.90;;;;;;5051881;28;20726;-75
2022/09/24 00:41:46;;;;;;;5.20;4.30;;;11.10;99.90;;;;;;5051707;28;20495;-75
2022/09/24 00:44:40;;;;;;;6.60;4.30;;;11.20;99.90;;;;;;5051724;28;20289;-76
2022/09/24 00:47:13;;;;;;;5.30;4.63;;;11.20;99.90;;;;;;5050215;28;20513;-76
2022/09/24 00:49:40;;;;;;;5.20;4.23;;;11.20;99.90;;;;;;5051810;28;20417;-76
2022/09/24 00:52:06;;;;;;;6.20;4.07;;;11.30;99.90;;;;;;5051257;28;20469;-76
2022/09/24 00:54:32;;;;;;;5.93;4.90;;;11.20;99.90;;;;;;5051496;28;20586;-76
2022/09/24 00:57:00;;;;;;;6.60;4.10;;;11.20;99.90;;;;;;5050027;28;20447;-75
2022/09/24 00:59:28;;;;;;;5.27;4.20;;;11.20;99.90;;;;;;5051421;28;20421;-75
2022/09/24 01:01:56;;;;;;;7.03;4.60;;;11.30;99.90;;;;;;5049958;28;20436;-76
2022/09/24 01:04:24;;;;;;;4.60;4.20;;;11.30;99.90;;;;;;5051317;28;20962;-76
2022/09/24 01:06:50;;;;;;;8.03;4.60;;;11.20;99.90;;;;;;5049992;28;20432;-76
2022/09/24 01:09:18;;;;;;;5.80;4.20;;;11.30;99.90;;;;;;5051205;28;20508;-76
2022/09/24 01:12:02;;;;;;;5.40;4.43;;;11.30;99.90;;;;;;5048563;28;20469;-75
2022/09/24 01:14:47;;;;;;;4.70;4.17;;;11.30;99.90;;;;;;5049935;28;21036;-76
2022/09/24 01:17:28;;;;;;;9.77;4.20;;;11.30;99.90;;;;;;5050989;28;20410;-75
2022/09/24 01:20:12;;;;;;;4.43;4.03;;;11.40;99.90;;;;;;5051171;28;20414;-76
2022/09/24 01:23:00;;;;;;;7.80;4.20;;;11.50;99.90;;;;;;5050810;28;20434;-76
2022/09/24 01:25:49;;;;;;;8.03;3.90;;;11.40;99.90;;;;;;5050915;28;20435;-76
2022/09/24 01:28:58;;;;;;;4.63;3.90;;;11.30;99.90;;;;;;5050789;28;20925;-76
2022/09/24 01:31:32;;;;;;;4.77;4.33;;;11.30;99.90;;;;;;5049353;28;20567;-76
2022/09/24 01:34:04;;;;;;;4.37;3.93;;;11.30;99.90;;;;;;5050158;28;20932;-76
2022/09/24 01:36:32;;;;;;;5.87;4.27;;;11.40;99.90;;;;;;5050544;28;20417;-76
2022/09/24 01:38:59;;;;;;;5.07;4.57;;;11.40;99.90;;;;;;5050864;28;20509;-76
2022/09/24 01:41:25;;;;;;;7.13;4.80;;;11.30;99.90;;;;;;5049331;28;20908;-76
2022/09/24 01:43:51;;;;;;;7.83;4.80;;;11.30;99.90;;;;;;5050554;28;20488;-75
2022/09/24 01:46:18;;;;;;;4.70;4.30;;;11.30;99.90;;;;;;5050587;28;20186;-75
2022/09/24 01:48:44;;;;;;;5.77;4.90;;;11.20;99.90;;;;;;5050446;28;20550;-76
2022/09/24 01:51:25;;;;;;;5.33;4.83;;;11.10;99.90;;;;;;5049198;28;20465;-76
2022/09/24 01:54:02;;;;;;;9.37;5.20;;;11.10;99.90;;;;;;5050430;28;20816;-75
2022/09/24 01:56:41;;;;;;;8.37;5.43;;;11.10;99.90;;;;;;5050345;28;20532;-76
2022/09/24 01:59:16;;;;;;;5.40;4.80;;;11.00;99.90;;;;;;5050180;28;20733;-76
2022/09/24 02:01:57;;;;;;;7.43;5.57;;;11.00;99.90;;;;;;5048844;28;20420;-75
2022/09/24 02:04:27;;;;;;;8.20;5.40;;;10.90;99.90;;;;;;5050154;28;20436;-76
2022/09/24 02:07:00;;;;;;;5.60;4.80;;;10.90;99.90;;;;;;5048889;28;21158;-76
2022/09/24 02:09:35;;;;;;;8.03;5.47;;;10.90;99.90;;;;;;5050162;28;20452;-76
2022/09/24 02:12:16;;;;;;;5.23;4.73;;;10.80;99.90;;;;;;5050016;28;20463;-75
2022/09/24 02:15:14;;;;;;;9.30;5.57;;;10.90;99.90;;;;;;5048750;28;20429;-76
2022/09/24 02:17:43;;;;;;;6.60;4.53;;;10.90;99.90;;;;;;5049374;28;20431;-76
2022/09/24 02:20:13;;;;;;;6.00;4.80;;;10.90;99.90;;;;;;5049667;28;20486;-76
2022/09/24 02:22:40;;;;;;;11.90;5.40;;;10.90;99.90;;;;;;5049346;28;20514;-76
2022/09/24 02:25:09;;;;;;;9.80;4.93;;;10.80;99.90;;;;;;5049253;28;20432;-76
2022/09/24 02:27:35;;;;;;;4.93;4.40;;;10.90;99.90;;;;;;5049183;28;20447;-76
2022/09/24 02:30:00;;;;;;;8.23;5.30;;;11.00;99.90;;;;;;5049452;28;20414;-76
2022/09/24 02:32:30;;;;;;;5.97;5.07;;;10.90;99.90;;;;;;5049325;28;20217;-76
2022/09/24 02:35:02;;;;;;;5.60;5.00;;;11.00;99.90;;;;;;5051558;28;20678;-76
2022/09/24 02:37:28;;;;;;;6.00;4.10;;;11.00;99.90;;;;;;5051330;28;20421;-76
2022/09/24 02:39:54;;;;;;;6.33;4.27;;;11.00;99.90;;;;;;5051179;28;20418;-76
2022/09/24 02:42:21;;;;;;;4.40;3.80;;;10.90;99.90;;;;;;5051613;28;20449;-75
2022/09/24 02:44:46;;;;;;;10.07;4.87;;;10.80;99.90;;;;;;5050238;28;20179;-76
2022/09/24 02:47:12;;;;;;;5.30;4.50;;;10.80;99.90;;;;;;5050077;28;20425;-75
2022/09/24 02:49:38;;;;;;;4.70;4.20;;;10.80;99.90;;;;;;5050151;28;20200;-75
2022/09/24 02:52:04;;;;;;;4.00;3.60;;;10.90;99.90;;;;;;5049719;28;20465;-75
2022/09/24 02:54:30;;;;;;;5.83;4.73;;;11.00;99.90;;;;;;5031334;28;20233;-76
2022/09/24 02:56:56;;;;;;;7.13;4.80;;;11.10;99.90;;;;;;5049190;28;20197;-76
2022/09/24 02:59:22;;;;;;;5.63;4.33;;;11.10;99.90;;;;;;5049478;28;20185;-75
2022/09/24 03:01:48;;;;;;;4.50;4.10;;;11.00;99.90;;;;;;5049378;28;20424;-76
2022/09/24 03:04:14;;;;;;;5.60;5.00;;;11.00;99.90;;;;;;5049386;28;20200;-75
2022/09/24 03:06:40;;;;;;;13.17;5.00;;;11.10;99.90;;;;;;5047751;28;20428;-76
2022/09/24 03:09:06;;;;;;;5.57;4.63;;;11.00;99.90;;;;;;5049527;28;20425;-75
2022/09/24 03:11:32;;;;;;;5.30;4.80;;;11.00;99.90;;;;;;5049377;28;20515;-75
2022/09/24 03:13:58;;;;;;;6.80;4.80;;;11.00;99.90;;;;;;5047941;28;20251;-76
2022/09/24 03:16:25;;;;;;;5.30;4.77;;;11.00;99.90;;;;;;5049348;28;20843;-76
2022/09/24 03:18:50;;;;;;;5.73;5.17;;;11.00;99.90;;;;;;5049448;28;20479;-75
2022/09/24 03:21:18;;;;;;;7.60;5.00;;;11.00;99.90;;;;;;5047961;28;20430;-75
2022/09/24 03:23:45;;;;;;;6.10;5.20;;;11.10;99.90;;;;;;5049100;28;20218;-75
2022/09/24 03:26:11;;;;;;;7.03;5.60;;;11.10;99.90;;;;;;5049192;28;20451;-75
2022/09/24 03:28:37;;;;;;;5.87;4.90;;;11.10;99.90;;;;;;5049316;28;20961;-75
2022/09/24 03:31:03;;;;;;;6.43;5.17;;;11.10;99.90;;;;;;5048670;28;20484;-76
2022/09/24 03:33:48;;;;;;;6.27;4.80;;;11.20;99.90;;;;;;5049592;28;21019;-76
2022/09/24 03:36:21;;;;;;;6.07;4.50;;;11.20;99.90;;;;;;5053127;28;21268;-75
2022/09/24 03:38:49;;;;;;;8.33;5.13;;;11.20;99.90;;;;;;5053000;28;20499;-75
2022/09/24 03:41:15;;;;;;;6.13;5.53;;;11.30;99.90;;;;;;5052992;28;20453;-76
2022/09/24 03:43:42;;;;;;;7.00;4.50;;;11.20;99.90;;;;;;5051713;28;20440;-75
2022/09/24 03:46:09;;;;;;;6.60;5.03;;;11.30;99.90;;;;;;5051680;28;20490;-76
2022/09/24 03:48:37;;;;;;;8.03;5.43;;;11.20;99.90;;;;;;5053016;28;20417;-76
2022/09/24 03:51:09;;;;;;;6.20;5.60;;;11.10;99.90;;;;;;5052804;28;20456;-75
2022/09/24 03:53:35;;;;;;;7.50;5.30;;;11.10;99.90;;;;;;5052678;28;20440;-76
2022/09/24 03:56:01;;;;;;;8.63;5.33;;;11.10;99.90;;;;;;5034794;28;20436;-75
2022/09/24 03:58:29;;;;;;;8.17;5.53;;;11.10;99.90;;;;;;5052350;28;20511;-75
2022/09/24 04:00:56;;;;;;;6.83;5.93;;;11.10;99.90;;;;;;5052447;28;21016;-75
2022/09/24 04:03:21;;;;;;;6.07;5.47;;;11.10;99.90;;;;;;5052231;28;20524;-76
2022/09/24 04:05:50;;;;;;;6.90;5.57;;;11.10;99.90;;;;;;5051086;28;20505;-75
2022/09/24 04:08:16;;;;;;;7.63;5.93;;;11.10;99.90;;;;;;5052258;28;20199;-76
2022/09/24 04:10:45;;;;;;;13.60;6.07;;;11.20;99.90;;;;;;5050892;28;20416;-76
2022/09/24 04:13:11;;;;;;;8.23;5.87;;;11.10;99.90;;;;;;5034060;28;21082;-76
2022/09/24 04:15:37;;;;;;;8.50;6.03;;;11.20;99.90;;;;;;5052205;28;20989;-76
2022/09/24 04:18:02;;;;;;;8.23;4.90;;;11.20;99.90;;;;;;5051114;28;20532;-76
2022/09/24 04:20:29;;;;;;;10.40;6.30;;;11.20;99.90;;;;;;5052607;28;20205;-74
2022/09/24 04:22:57;;;;;;;6.33;5.37;;;11.20;99.90;;;;;;5052546;28;20202;-75
2022/09/24 04:25:24;;;;;;;6.20;4.90;;;10.90;99.90;;;;;;5052332;28;20428;-76
2022/09/24 04:28:01;;;;;;;6.97;5.97;;;11.00;99.90;;;;;;5052227;28;20433;-76
2022/09/24 04:30:28;;;;;;;7.00;5.90;;;11.00;99.90;;;;;;5052092;28;20421;-76
2022/09/24 04:32:53;;;;;;;8.40;6.10;;;11.00;99.90;;;;;;5051778;28;20489;-76
2022/09/24 04:35:21;;;;;;;11.70;6.20;;;11.10;99.90;;;;;;5052162;28;20421;-76
2022/09/24 04:37:47;;;;;;;11.50;6.40;;;11.20;99.90;;;;;;5051806;28;20178;-76
2022/09/24 04:40:14;;;;;;;7.13;6.13;;;11.20;99.90;;;;;;5051943;28;20484;-76
2022/09/24 04:42:41;;;;;;;9.33;6.20;;;11.20;99.90;;;;;;5050377;28;20443;-76
2022/09/24 04:45:08;;;;;;;10.13;6.40;;;11.20;99.90;;;;;;5050195;28;20437;-76
2022/09/24 04:47:34;;;;;;;9.40;6.60;;;11.20;99.90;;;;;;5051925;28;20512;-76
2022/09/24 04:50:01;;;;;;;6.37;5.67;;;11.20;99.90;;;;;;5051599;28;20867;-76
2022/09/24 04:52:28;;;;;;;7.93;6.17;;;11.20;99.90;;;;;;5051275;28;20545;-76
2022/09/24 04:54:56;;;;;;;6.63;6.00;;;11.20;99.90;;;;;;5050023;28;20426;-76
2022/09/24 04:57:22;;;;;;;10.03;7.10;;;11.20;99.90;;;;;;5051067;28;20448;-76
2022/09/24 04:59:48;;;;;;;6.20;5.60;;;11.20;99.90;;;;;;5051346;28;20945;-76
2022/09/24 05:02:14;;;;;;;11.30;5.60;;;11.20;99.90;;;;;;5051180;28;20429;-76
2022/09/24 05:04:40;;;;;;;8.63;5.93;;;11.40;99.90;;;;;;5049863;28;20267;-76
2022/09/24 05:07:05;;;;;;;6.40;5.40;;;11.40;99.90;;;;;;5051107;28;20190;-76
2022/09/24 05:09:31;;;;;;;7.53;6.20;;;11.40;99.90;;;;;;5050835;28;20186;-76
2022/09/24 05:11:57;;;;;;;8.83;5.77;;;11.40;99.90;;;;;;5050814;28;20240;-76
2022/09/24 05:14:23;;;;;;;9.00;6.80;;;11.40;99.90;;;;;;5050564;28;20202;-76
2022/09/24 05:16:49;;;;;;;7.93;6.53;;;11.40;99.90;;;;;;5049094;28;20470;-75
2022/09/24 05:19:14;;;;;;;7.27;6.00;;;11.30;99.90;;;;;;5049056;28;20461;-76
2022/09/24 05:21:40;;;;;;;9.83;6.77;;;11.40;99.90;;;;;;5050342;28;20186;-76
2022/09/24 05:24:06;;;;;;;10.50;5.63;;;11.40;99.90;;;;;;5049076;28;20208;-76
2022/09/24 05:29:15;;;;;;;11.53;6.33;;;11.60;99.90;;;;;;5050637;28;20232;-76
2022/09/24 05:31:41;;;;;;;6.30;5.70;;;11.70;99.90;;;;;;5050150;28;20823;-76
2022/09/24 05:34:06;;;;;;;5.23;4.73;;;11.70;99.90;;;;;;5050055;28;20206;-76
2022/09/24 05:36:32;;;;;;;9.10;4.90;;;11.70;99.90;;;;;;5050293;28;20184;-76
2022/09/24 05:38:58;;;;;;;8.00;4.50;;;11.90;99.90;;;;;;5048481;28;20659;-76
2022/09/24 05:41:23;;;;;;;5.10;3.80;;;12.10;99.90;;;;;;5050081;28;20626;-76
2022/09/24 05:43:49;;;;;;;12.37;5.33;;;12.30;99.90;;;;;;5049773;28;20728;-76
2022/09/24 05:46:15;;;;;;;5.93;5.10;;;12.60;99.90;;;;;;5049810;28;20278;-76
2022/09/24 05:48:41;;;;;;;5.50;4.60;;;12.80;99.90;;;;;;5049726;28;20508;-76
2022/09/24 05:51:06;;;;;;;6.30;4.97;;;12.90;99.90;;;;;;5049684;28;20192;-76
2022/09/24 05:53:32;;;;;;;8.70;5.70;;;13.00;99.90;;;;;;5049508;28;20294;-76
2022/09/24 05:55:58;;;;;;;12.30;5.77;;;13.10;99.90;;;;;;5047976;28;20229;-75
2022/09/24 05:58:24;;;;;;;8.03;5.60;;;13.30;99.90;;;;;;5049250;28;20435;-76
2022/09/24 06:00:50;;;;;;;5.70;4.90;;;13.30;99.90;;;;;;5049481;28;20211;-75
2022/09/24 06:03:17;;;;;;;9.00;5.90;;;13.30;99.90;;;;;;5049403;28;20192;-76
2022/09/24 06:05:48;;;;;;;6.60;5.87;;;13.40;99.90;;;;;;5049437;28;20421;-74
2022/09/24 06:08:15;;;;;;;8.23;6.00;;;13.40;99.90;;;;;;5049417;28;20506;-74
2022/09/24 06:10:42;;;;;;;8.10;5.27;;;13.40;99.90;;;;;;5049170;28;20410;-75
2022/09/24 06:13:10;;;;;;;10.70;5.67;;;13.50;99.90;;;;;;5048989;28;20923;-75
2022/09/24 06:15:42;;;;;;;8.70;6.07;;;13.50;99.90;;;;;;5049167;28;20429;-75
2022/09/24 06:18:09;;;;;;;7.53;5.20;;;13.50;99.90;;;;;;5047542;28;20997;-75
2022/09/24 06:20:35;;;;;;;11.40;6.00;;;13.50;99.90;;;;;;5047584;28;20506;-75
2022/09/24 06:23:04;;;;;;;5.77;5.20;;;13.50;99.90;;;;;;5048938;28;20532;-75
2022/09/24 06:25:30;;;;;;;23.13;6.07;;;13.50;99.90;;;;;;5049343;28;20269;-75
2022/09/24 06:27:59;;;;;;;6.43;5.83;;;13.60;99.90;;;;;;5048940;28;20505;-76
2022/09/24 06:30:30;;;;;;;6.90;5.53;;;13.60;99.90;;;;;;5049179;28;20762;-76
2022/09/24 06:33:04;;;;;;;5.97;5.00;;;13.70;99.90;;;;;;5048776;28;20469;-76
2022/09/24 06:35:32;;;;;;;6.77;4.87;;;13.70;99.90;;;;;;5049073;28;20440;-76
2022/09/24 06:37:57;;;;;;;4.93;4.53;;;13.70;99.90;;;;;;5047436;28;20542;-75
2022/09/24 06:40:25;;;;;;;7.10;5.33;;;13.80;99.90;;;;;;5048766;28;20534;-75
2022/09/24 06:42:51;;;;;;;6.53;5.63;;;13.80;99.90;;;;;;5048894;28;20232;-75
2022/09/24 06:45:19;;;;;;;7.03;5.63;;;13.80;99.90;;;;;;5048821;28;20425;-75
2022/09/24 06:47:54;;;;;;;6.67;4.70;;;13.90;99.90;;;;;;5048695;28;20418;-76
2022/09/24 06:50:21;;;;;;;9.13;5.90;;;13.90;99.90;;;;;;5048828;28;20409;-75
2022/09/24 06:52:47;;;;;;;4.53;4.10;;;13.90;99.90;;;;;;5048734;28;20915;-75
2022/09/24 06:55:13;;;;;;;7.40;5.30;;;13.90;99.90;;;;;;5048691;28;20505;-76
2022/09/24 06:57:38;;;;;;;5.07;4.20;;;14.00;99.90;;;;;;5048471;28;20434;-76
2022/09/24 07:00:05;;;;;;;9.93;4.63;;;14.00;99.90;;;;;;5048363;28;20500;-75
2022/09/24 07:02:30;;;;;;;8.27;4.10;;;14.00;99.90;;;;;;5048614;28;20538;-76
2022/09/24 07:04:56;;;;;;;5.17;4.20;;;14.00;99.90;;;;;;5048676;28;20868;-75
2022/09/24 07:07:28;;;;;;;6.10;4.30;;;14.00;99.90;;;;;;5048560;28;20190;-76
2022/09/24 07:09:54;;;;;;;5.20;4.10;;;14.00;99.90;;;;;;5052592;28;20200;-75
2022/09/24 07:12:19;;;;;;;7.80;4.57;;;14.10;99.90;;;;;;5051595;28;20489;-75
2022/09/24 07:14:45;;;;;;;7.43;4.80;;;14.00;99.90;;;;;;5052794;28;20814;-76
2022/09/24 07:17:11;;;;;;;4.93;4.30;;;14.00;99.90;;;;;;5052805;28;20294;-75
2022/09/24 07:19:37;;;;;;;9.23;4.67;;;14.00;99.90;;;;;;5052540;28;20213;-75
2022/09/24 07:22:03;;;;;;;6.60;4.67;;;14.10;99.90;;;;;;5052325;28;20184;-75
2022/09/24 07:24:29;;;;;;;9.03;4.90;;;14.10;99.90;;;;;;5052524;28;20437;-76
2022/09/24 07:26:54;;;;;;;6.70;5.53;;;14.10;99.90;;;;;;5052486;28;20418;-76
2022/09/24 07:29:20;;;;;;;8.30;6.07;;;14.10;99.90;;;;;;5052235;28;20245;-76
2022/09/24 07:31:46;;;;;;;5.73;5.13;;;14.10;99.90;;;;;;5052403;28;20215;-76
2022/09/24 07:34:13;;;;;;;8.30;6.50;;;14.20;99.90;;;;;;5053672;28;20200;-76
2022/09/24 07:36:39;;;;;;;10.87;6.90;;;14.20;99.90;;;;;;5053803;28;20230;-76
2022/09/24 07:39:05;;;;;;;6.07;5.47;;;14.30;99.90;;;;;;5054772;28;20449;-76
2022/09/24 07:41:30;;;;;;;7.00;4.67;;;14.30;99.90;;;;;;5054675;28;20425;-76
2022/09/24 07:43:56;;;;;;;4.67;4.27;;;14.30;99.90;;;;;;5051734;28;20450;-76
2022/09/24 07:46:23;;;;;;;5.13;4.57;;;14.30;99.90;;;;;;5052719;28;20191;-76
2022/09/24 07:48:48;;;;;;;8.10;4.47;;;14.40;99.90;;;;;;5051264;28;20183;-76
2022/09/24 07:51:15;;;;;;;7.13;5.33;;;14.40;99.90;;;;;;5051011;28;20852;-76
2022/09/24 07:53:40;;;;;;;7.87;5.03;;;14.50;99.90;;;;;;5050564;28;20204;-76
2022/09/24 07:56:06;;;;;;;6.70;4.63;;;14.50;99.90;;;;;;5050320;28;20822;-76
2022/09/24 07:58:31;;;;;;;7.70;4.80;;;14.60;99.90;;;;;;5051920;28;20238;-76
2022/09/24 08:00:58;;;;;;;5.33;4.23;;;14.60;99.90;;;;;;5051892;28;20286;-76
2022/09/24 08:03:23;;;;;;;6.90;4.40;;;14.60;99.90;;;;;;5051822;28;20208;-76
2022/09/24 08:05:49;;;;;;;4.13;3.73;;;14.70;99.90;;;;;;5050261;28;20487;-76
2022/09/24 08:08:14;;;;;;;5.37;3.90;;;14.70;99.90;;;;;;5051492;28;20180;-76
2022/09/24 08:10:41;;;;;;;7.00;4.00;;;14.90;99.90;;;;;;5051443;28;20187;-76
2022/09/24 08:13:07;;;;;;;6.50;3.90;;;14.80;99.90;;;;;;5051121;28;20212;-76
2022/09/24 08:15:33;;;;;;;4.90;3.90;;;14.90;99.90;;;;;;5050016;28;20590;-76
2022/09/24 08:18:03;;;;;;;4.37;3.60;;;14.90;99.90;;;;;;5033305;28;20426;-76
2022/09/24 08:20:30;;;;;;;5.10;3.60;;;14.90;99.90;;;;;;5051028;28;20415;-75
2022/09/24 08:23:03;;;;;;;4.10;3.70;;;14.90;99.90;;;;;;5049943;28;21003;-75
2022/09/24 08:25:30;;;;;;;4.17;3.43;;;14.90;99.90;;;;;;5049970;28;20425;-76
2022/09/24 08:28:00;;;;;;;5.73;3.87;;;14.80;99.90;;;;;;5051268;28;20792;-76
2022/09/24 08:30:25;;;;;;;5.47;3.57;;;14.80;99.90;;;;;;5051265;28;20472;-75
2022/09/24 08:32:51;;;;;;;4.40;2.83;;;14.70;99.90;;;;;;5049491;28;20465;-75
2022/09/24 08:35:19;;;;;;;6.50;3.43;;;14.70;99.90;;;;;;5051144;28;20180;-76
2022/09/24 08:37:45;;;;;;;4.10;3.10;;;14.70;99.90;;;;;;5033102;28;20192;-75
2022/09/24 08:40:18;;;;;;;3.93;2.90;;;14.60;99.90;;;;;;5051196;28;20423;-76
2022/09/24 08:43:25;;;;;;;4.53;3.23;;;14.60;99.90;;;;;;5051017;28;20259;-75
2022/09/24 08:48:51;;;;;;;3.40;2.80;;;14.60;99.90;;;;;;5051013;28;20418;-76
2022/09/24 08:51:19;;;;;;;3.07;2.33;;;14.60;99.90;;;;;;5050569;28;20553;-76
2022/09/24 08:53:58;;;;;;;4.07;3.10;;;14.60;99.90;;;;;;5050766;28;20492;-76
2022/09/24 08:56:31;;;;;;;3.00;2.57;;;14.50;99.90;;;;;;5050419;28;20439;-76
2022/09/24 08:59:15;;;;;;;2.77;2.57;;;14.50;99.90;;;;;;5050647;28;20927;-76
2022/09/24 09:02:12;;;;;;;2.37;2.17;;;14.40;99.90;;;;;;5050670;28;20422;-76
2022/09/24 09:04:56;;;;;;;3.67;2.17;;;14.40;99.90;;;;;;5050499;28;20992;-76
2022/09/24 09:07:51;;;;;;;2.40;2.20;;;14.30;99.90;;;;;;5048889;28;20412;-76
2022/09/24 09:10:27;;;;;;;2.17;1.97;;;14.30;99.90;;;;;;5028259;28;20422;-76
2022/09/24 09:13:15;;;;;;;3.77;1.67;;;14.30;99.90;;;;;;5050193;28;20978;-76
2022/09/24 09:15:50;;;;;;;2.27;2.07;;;14.40;99.90;;;;;;5048400;28;20919;-76
2022/09/24 09:18:22;;;;;;;3.60;2.10;;;14.40;99.90;;;;;;5048620;28;20502;-76
2022/09/24 09:20:48;;;;;;;2.40;1.57;;;14.50;99.90;;;;;;5048526;28;20465;-76
2022/09/24 09:23:26;;;;;;;1.93;1.80;;;14.50;99.90;;;;;;5050011;28;20438;-75
2022/09/24 09:25:59;;;;;;;2.43;1.73;;;14.50;99.90;;;;;;5050361;28;20419;-76
2022/09/24 09:28:26;;;;;;;2.80;1.90;;;14.40;99.90;;;;;;5050093;28;20419;-75
2022/09/24 09:31:17;;;;;;;1.87;1.73;;;14.50;99.90;;;;;;5049367;28;20419;-76
2022/09/24 09:34:09;;;;;;;2.60;1.87;;;14.60;99.90;;;;;;5048289;28;21042;-75
2022/09/24 09:36:53;;;;;;;2.57;1.60;;;14.50;99.90;;;;;;5049654;28;20414;-75
2022/09/24 09:39:28;;;;;;;2.27;1.60;;;14.50;99.90;;;;;;5049906;28;20461;-76
2022/09/24 09:42:22;;;;;;;9.40;1.80;;;14.60;99.90;;;;;;5049655;28;20972;-75
2022/09/24 09:44:48;;;;;;;2.13;1.90;;;14.50;99.90;;;;;;5048260;28;20422;-76
2022/09/24 09:47:36;;;;;;;3.73;1.70;;;14.50;99.90;;;;;;5048081;28;20406;-76
2022/09/24 09:50:30;;;;;;;1.80;1.70;;;14.60;99.90;;;;;;5042226;28;20545;-75
2022/09/24 09:52:56;;;;;;;2.13;1.93;;;14.50;99.90;;;;;;5045162;28;20473;-77
2022/09/24 09:55:28;;;;;;;3.27;1.83;;;14.50;99.90;;;;;;5047733;28;20480;-76
2022/09/24 09:58:14;;;;;;;2.20;2.00;;;14.50;99.90;;;;;;5050168;28;20225;-76
2022/09/24 10:00:40;;;;;;;2.90;1.90;;;14.50;99.90;;;;;;5051713;28;20419;-76
2022/09/24 10:03:23;;;;;;;2.60;2.20;;;14.60;99.90;;;;;;5049242;28;20451;-76
2022/09/24 10:05:55;;;;;;;5.23;2.30;;;14.50;99.90;;;;;;5049325;28;20460;-76
2022/09/24 10:08:22;;;;;;;2.20;2.00;;;14.40;99.90;;;;;;5047814;28;20513;-76
2022/09/24 10:10:59;;;;;;;2.13;1.93;;;14.40;99.90;;;;;;5049271;28;20476;-76
2022/09/24 10:13:25;;;;;;;2.87;2.40;;;14.40;99.90;;;;;;5049428;28;20449;-77
2022/09/24 10:16:07;;;;;;;2.73;1.93;;;14.50;99.90;;;;;;5049346;28;20422;-76
2022/09/24 10:18:46;;;;;;;3.07;2.37;;;14.50;99.90;;;;;;5049469;28;20611;-76
2022/09/24 10:21:28;;;;;;;4.43;4.03;;;14.50;99.90;;;;;;5049276;28;20415;-76
2022/09/24 10:23:59;;;;;;;2.80;2.23;;;14.40;99.90;;;;;;5049404;28;20525;-76
2022/09/24 10:26:40;;;;;;;4.60;2.37;;;14.60;99.90;;;;;;5047695;28;20784;-76
2022/09/24 10:31:58;;;;;;;2.30;2.03;;;14.70;99.90;;;;;;5048919;28;20998;-76
2022/09/24 10:34:26;;;;;;;3.63;2.67;;;14.80;99.90;;;;;;5049213;28;20438;-77
2022/09/24 10:36:58;;;;;;;3.30;3.00;;;14.80;99.90;;;;;;5049075;28;20637;-77
2022/09/24 10:39:24;;;;;;;2.27;2.07;;;14.80;99.90;;;;;;5048932;28;20446;-77
2022/09/24 10:41:52;;;;;;;2.40;1.90;;;14.80;99.90;;;;;;5049000;28;20504;-76
2022/09/24 10:44:20;;;;;;;3.30;3.00;;;14.90;99.90;;;;;;5048632;28;20275;-76
2022/09/24 10:47:13;;;;;;;4.13;3.63;;;15.10;99.90;;;;;;5048819;28;20795;-76
2022/09/24 10:49:45;;;;;;;3.70;2.17;;;15.00;99.90;;;;;;5048888;28;20842;-76
2022/09/24 10:52:28;;;;;;;2.53;2.33;;;15.00;99.90;;;;;;5047169;28;20468;-76
2022/09/24 10:55:06;;;;;;;2.47;2.27;;;15.00;99.90;;;;;;5049273;28;20419;-76
2022/09/24 10:57:45;;;;;;;2.37;2.17;;;15.10;99.90;;;;;;5047445;28;20465;-76
2022/09/24 11:00:31;;;;;;;2.83;2.63;;;15.10;99.90;;;;;;5050021;28;20453;-76
2022/09/24 11:03:12;;;;;;;3.30;2.97;;;15.00;99.90;;;;;;5049486;28;20439;-76
2022/09/24 11:05:44;;;;;;;2.43;2.23;;;15.00;99.90;;;;;;5049598;28;20414;-75
2022/09/24 11:08:28;;;;;;;2.70;1.90;;;15.20;99.90;;;;;;5049293;28;20911;-76
2022/09/24 11:11:01;;;;;;;2.60;2.40;;;15.10;99.90;;;;;;5049518;28;20428;-75
2022/09/24 11:13:58;;;;;;;3.20;2.40;;;15.20;99.90;;;;;;5049311;28;20439;-76
2022/09/24 11:16:54;;;;;;;2.47;2.27;;;15.30;99.90;;;;;;5029835;28;20466;-76
2022/09/24 11:19:30;;;;;;;2.37;2.17;;;15.30;99.90;;;;;;5030986;28;20415;-75
2022/09/24 11:22:09;;;;;;;4.23;3.13;;;15.40;99.90;;;;;;5049167;28;20386;-76
2022/09/24 11:24:44;;;;;;;4.73;2.80;;;15.50;99.90;;;;;;5048857;28;20433;-76
2022/09/24 11:27:43;;;;;;;2.60;2.20;;;15.60;99.90;;;;;;5048753;28;20411;-76
2022/09/24 11:30:46;;;;;;;4.00;2.40;;;15.50;99.90;;;;;;5048623;28;20495;-75
2022/09/24 11:33:48;;;;;;;3.90;1.90;;;15.70;99.90;;;;;;5026749;28;20816;-76
2022/09/24 11:36:40;;;;;;;2.33;2.13;;;15.70;99.90;;;;;;5048565;28;20454;-76
2022/09/24 11:39:17;;;;;;;5.63;2.00;;;15.70;99.90;;;;;;5040752;28;20431;-77
2022/09/24 11:41:58;;;;;;;1.90;1.70;;;15.80;99.90;;;;;;5047072;28;20475;-77
2022/09/24 11:44:36;;;;;;;2.03;1.93;;;15.90;99.90;;;;;;5048406;28;20500;-77
2022/09/24 11:47:36;;;;;;;2.97;1.87;;;16.00;99.90;;;;;;5048702;28;20420;-76
2022/09/24 11:50:40;;;;;;;2.67;1.73;;;16.20;99.90;;;;;;5042570;28;20427;-76
2022/09/24 11:53:20;;;;;;;2.17;1.97;;;16.20;99.90;;;;;;5026681;28;21007;-76
2022/09/24 11:55:52;;;;;;;13.07;2.13;;;16.20;99.90;;;;;;5050770;28;20937;-75
2022/09/24 11:58:42;;;;;;;3.00;1.83;;;16.20;99.90;;;;;;5051899;28;20431;-75
2022/09/24 12:01:21;;;;;;;2.70;1.90;;;16.30;99.90;;;;;;5051961;28;20421;-76
2022/09/24 12:03:55;;;;;;;2.27;2.10;;;16.30;99.90;;;;;;5051701;28;20449;-76
2022/09/24 12:06:42;;;;;;;2.53;2.27;;;16.30;99.90;;;;;;5051683;28;20836;-75
2022/09/24 12:09:58;;;;;;;4.53;2.03;;;16.10;99.90;;;;;;5051832;28;20428;-75
2022/09/24 12:12:31;;;;;;;2.00;1.73;;;16.10;99.90;;;;;;5027982;28;20608;-76
2022/09/24 12:15:13;;;;;;;2.13;1.87;;;16.10;99.90;;;;;;5050053;28;20494;-76
2022/09/24 12:18:01;;;;;;;4.00;2.40;;;16.10;99.90;;;;;;5051377;28;20439;-75
2022/09/24 12:20:29;;;;;;;1.80;1.70;;;16.20;99.90;;;;;;5051508;28;20410;-75
2022/09/24 12:23:03;;;;;;;5.43;1.90;;;16.20;99.90;;;;;;5051220;28;20474;-76
2022/09/24 12:25:43;;;;;;;2.13;1.67;;;16.20;99.90;;;;;;5051324;28;20409;-75
2022/09/24 12:28:12;;;;;;;2.80;2.37;;;16.40;99.90;;;;;;5051310;28;20408;-76
2022/09/24 12:33:47;;;;;;;5.90;2.30;;;16.50;99.90;;;;;;5051127;28;20439;-76
2022/09/24 12:36:53;;;;;;;4.27;2.47;;;16.60;99.90;;;;;;5051825;28;20428;-76
2022/09/24 12:39:22;;;;;;;2.80;2.47;;;16.50;99.90;;;;;;5029796;28;20489;-76
2022/09/24 12:41:56;;;;;;;2.33;2.10;;;16.60;99.90;;;;;;5058392;28;20426;-76
2022/09/24 12:44:33;;;;;;;2.00;1.90;;;16.50;99.90;;;;;;5071572;28;20437;-76
2022/09/24 12:47:02;;;;;;;1.70;1.60;;;16.40;99.90;;;;;;5068525;28;20443;-76
2022/09/24 12:49:36;;;;;;;3.30;2.40;;;16.40;99.90;;;;;;5068991;28;20416;-75
2022/09/24 12:52:17;;;;;;;2.07;1.87;;;16.40;99.90;;;;;;5063816;28;20468;-76
2022/09/24 12:54:43;;;;;;;2.87;2.60;;;16.30;99.90;;;;;;5051433;28;20430;-76
2022/09/24 12:57:22;;;;;;;3.20;2.40;;;16.30;99.90;;;;;;5050643;28;20435;-76
2022/09/24 13:00:00;;;;;;;2.57;2.20;;;16.20;99.90;;;;;;5050517;28;20418;-76
2022/09/24 13:02:47;;;;;;;2.60;2.03;;;16.20;99.90;;;;;;5050471;28;20533;-75
2022/09/24 13:05:27;;;;;;;2.20;2.00;;;16.00;99.90;;;;;;5050136;28;20938;-75
2022/09/24 13:08:21;;;;;;;3.30;2.57;;;16.10;99.90;;;;;;5050285;28;20427;-75
2022/09/24 13:11:05;;;;;;;3.80;2.83;;;16.10;99.90;;;;;;5050288;28;20792;-76
2022/09/24 13:13:35;;;;;;;2.90;2.40;;;16.10;99.90;;;;;;5050021;28;20437;-75
2022/09/24 13:16:04;;;;;;;4.13;3.50;;;16.00;99.90;;;;;;5050139;28;20412;-75
2022/09/24 13:18:34;;;;;;;4.60;2.67;;;16.00;99.90;;;;;;5049948;28;20520;-76
2022/09/24 13:21:01;;;;;;;5.77;3.70;;;15.90;99.90;;;;;;5049914;28;20415;-76
2022/09/24 13:23:28;;;;;;;4.70;3.77;;;15.90;99.90;;;;;;5049881;28;20435;-76
2022/09/24 13:26:05;;;;;;;5.37;3.63;;;15.80;99.90;;;;;;5048239;28;20414;-76